sensor_id;sensor_type;location;lat;lon;timestamp;P1;durP1;ratioP1;P2;durP2;ratioP2
52186;SDS011;38161;53.020;6.598;2023-04-16T00:00:16;53.13;;;27.50;;
52186;SDS011;38161;53.020;6.598;2023-04-16T00:02:41;52.30;;;27.15;;
52186;SDS011;38161;53.020;6.598;2023-04-16T00:05:07;54.70;;;26.88;;
52186;SDS011;38161;53.020;6.598;2023-04-16T00:07:33;59.75;;;28.02;;
52186;SDS011;38161;53.020;6.598;2023-04-16T00:09:59;53.88;;;25.60;;
52186;SDS011;38161;53.020;6.598;2023-04-16T00:12:25;48.20;;;26.40;;
52186;SDS011;38161;53.020;6.598;2023-04-16T00:14:51;51.97;;;27.13;;
52186;SDS011;38161;53.020;6.598;2023-04-16T00:17:17;56.85;;;28.05;;
52186;SDS011;38161;53.020;6.598;2023-04-16T00:19:42;45.90;;;25.50;;
52186;SDS011;38161;53.020;6.598;2023-04-16T00:22:08;49.93;;;26.37;;
52186;SDS011;38161;53.020;6.598;2023-04-16T00:24:34;50.70;;;26.13;;
52186;SDS011;38161;53.020;6.598;2023-04-16T00:27:00;50.83;;;26.27;;
52186;SDS011;38161;53.020;6.598;2023-04-16T00:29:26;56.10;;;27.42;;
52186;SDS011;38161;53.020;6.598;2023-04-16T00:31:52;61.28;;;27.13;;
52186;SDS011;38161;53.020;6.598;2023-04-16T00:34:18;56.95;;;27.27;;
52186;SDS011;38161;53.020;6.598;2023-04-16T00:36:44;59.75;;;27.90;;
52186;SDS011;38161;53.020;6.598;2023-04-16T00:39:10;46.43;;;25.17;;
52186;SDS011;38161;53.020;6.598;2023-04-16T00:41:36;58.55;;;28.00;;
52186;SDS011;38161;53.020;6.598;2023-04-16T00:44:02;57.20;;;26.98;;
52186;SDS011;38161;53.020;6.598;2023-04-16T00:46:28;49.43;;;25.37;;
52186;SDS011;38161;53.020;6.598;2023-04-16T00:48:54;62.60;;;28.00;;
52186;SDS011;38161;53.020;6.598;2023-04-16T00:51:21;52.80;;;27.02;;
52186;SDS011;38161;53.020;6.598;2023-04-16T00:53:46;61.03;;;27.75;;
52186;SDS011;38161;53.020;6.598;2023-04-16T00:56:12;67.05;;;28.60;;
52186;SDS011;38161;53.020;6.598;2023-04-16T00:58:38;63.55;;;28.35;;
52186;SDS011;38161;53.020;6.598;2023-04-16T01:01:05;61.55;;;29.20;;
52186;SDS011;38161;53.020;6.598;2023-04-16T01:03:37;57.72;;;28.15;;
52186;SDS011;38161;53.020;6.598;2023-04-16T01:06:13;67.18;;;28.80;;
52186;SDS011;38161;53.020;6.598;2023-04-16T01:08:41;73.63;;;30.35;;
52186;SDS011;38161;53.020;6.598;2023-04-16T01:13:34;59.85;;;27.42;;
52186;SDS011;38161;53.020;6.598;2023-04-16T01:16:07;61.25;;;27.98;;
52186;SDS011;38161;53.020;6.598;2023-04-16T01:18:34;64.43;;;28.35;;
52186;SDS011;38161;53.020;6.598;2023-04-16T01:21:01;64.40;;;28.20;;
52186;SDS011;38161;53.020;6.598;2023-04-16T01:23:28;61.28;;;27.73;;
52186;SDS011;38161;53.020;6.598;2023-04-16T01:25:53;64.93;;;30.60;;
52186;SDS011;38161;53.020;6.598;2023-04-16T01:28:19;65.97;;;30.23;;
52186;SDS011;38161;53.020;6.598;2023-04-16T01:30:45;56.97;;;29.67;;
52186;SDS011;38161;53.020;6.598;2023-04-16T01:33:12;63.00;;;30.88;;
52186;SDS011;38161;53.020;6.598;2023-04-16T01:35:38;55.60;;;26.95;;
52186;SDS011;38161;53.020;6.598;2023-04-16T01:40:32;60.33;;;29.15;;
52186;SDS011;38161;53.020;6.598;2023-04-16T01:42:58;63.65;;;30.70;;
52186;SDS011;38161;53.020;6.598;2023-04-16T01:45:27;55.97;;;29.85;;
52186;SDS011;38161;53.020;6.598;2023-04-16T01:47:55;59.33;;;28.85;;
52186;SDS011;38161;53.020;6.598;2023-04-16T01:50:20;59.70;;;30.92;;
52186;SDS011;38161;53.020;6.598;2023-04-16T01:55:13;54.17;;;29.98;;
52186;SDS011;38161;53.020;6.598;2023-04-16T01:57:39;51.40;;;27.95;;
52186;SDS011;38161;53.020;6.598;2023-04-16T02:00:05;55.83;;;32.35;;
52186;SDS011;38161;53.020;6.598;2023-04-16T02:02:33;53.25;;;31.17;;
52186;SDS011;38161;53.020;6.598;2023-04-16T02:04:59;50.03;;;29.67;;
52186;SDS011;38161;53.020;6.598;2023-04-16T02:07:25;56.38;;;32.28;;
52186;SDS011;38161;53.020;6.598;2023-04-16T02:09:51;56.55;;;29.92;;
52186;SDS011;38161;53.020;6.598;2023-04-16T02:12:18;50.95;;;30.63;;
52186;SDS011;38161;53.020;6.598;2023-04-16T02:14:44;55.25;;;29.73;;
52186;SDS011;38161;53.020;6.598;2023-04-16T02:17:10;51.22;;;30.85;;
52186;SDS011;38161;53.020;6.598;2023-04-16T02:19:36;57.35;;;30.75;;
52186;SDS011;38161;53.020;6.598;2023-04-16T02:22:02;57.67;;;31.45;;
52186;SDS011;38161;53.020;6.598;2023-04-16T02:24:28;54.42;;;29.52;;
52186;SDS011;38161;53.020;6.598;2023-04-16T02:26:54;52.95;;;29.85;;
52186;SDS011;38161;53.020;6.598;2023-04-16T02:31:46;57.17;;;31.20;;
52186;SDS011;38161;53.020;6.598;2023-04-16T02:34:13;51.35;;;29.70;;
52186;SDS011;38161;53.020;6.598;2023-04-16T02:36:39;65.75;;;31.13;;
52186;SDS011;38161;53.020;6.598;2023-04-16T02:39:08;71.05;;;31.73;;
52186;SDS011;38161;53.020;6.598;2023-04-16T02:41:37;70.05;;;33.58;;
52186;SDS011;38161;53.020;6.598;2023-04-16T02:44:03;59.42;;;30.90;;
52186;SDS011;38161;53.020;6.598;2023-04-16T02:46:29;59.85;;;32.83;;
52186;SDS011;38161;53.020;6.598;2023-04-16T02:48:54;66.13;;;33.50;;
52186;SDS011;38161;53.020;6.598;2023-04-16T02:51:20;59.30;;;31.38;;
52186;SDS011;38161;53.020;6.598;2023-04-16T02:53:46;64.80;;;32.77;;
52186;SDS011;38161;53.020;6.598;2023-04-16T02:56:12;65.32;;;32.42;;
52186;SDS011;38161;53.020;6.598;2023-04-16T02:58:38;60.72;;;30.60;;
52186;SDS011;38161;53.020;6.598;2023-04-16T03:01:04;67.38;;;31.58;;
52186;SDS011;38161;53.020;6.598;2023-04-16T03:03:30;68.25;;;32.38;;
52186;SDS011;38161;53.020;6.598;2023-04-16T03:05:56;72.35;;;33.85;;
52186;SDS011;38161;53.020;6.598;2023-04-16T03:08:21;66.22;;;31.00;;
52186;SDS011;38161;53.020;6.598;2023-04-16T03:10:47;62.35;;;32.30;;
52186;SDS011;38161;53.020;6.598;2023-04-16T03:13:13;69.60;;;32.00;;
52186;SDS011;38161;53.020;6.598;2023-04-16T03:15:39;72.68;;;32.83;;
52186;SDS011;38161;53.020;6.598;2023-04-16T03:18:05;71.47;;;32.72;;
52186;SDS011;38161;53.020;6.598;2023-04-16T03:20:31;70.68;;;33.03;;
52186;SDS011;38161;53.020;6.598;2023-04-16T03:22:57;64.78;;;32.35;;
52186;SDS011;38161;53.020;6.598;2023-04-16T03:25:23;75.55;;;34.58;;
52186;SDS011;38161;53.020;6.598;2023-04-16T03:27:48;73.20;;;35.25;;
52186;SDS011;38161;53.020;6.598;2023-04-16T03:30:15;79.55;;;35.08;;
52186;SDS011;38161;53.020;6.598;2023-04-16T03:32:40;76.50;;;33.58;;
52186;SDS011;38161;53.020;6.598;2023-04-16T03:35:07;64.30;;;31.63;;
52186;SDS011;38161;53.020;6.598;2023-04-16T03:39:59;77.03;;;34.28;;
52186;SDS011;38161;53.020;6.598;2023-04-16T03:42:25;74.20;;;35.13;;
52186;SDS011;38161;53.020;6.598;2023-04-16T03:44:51;62.28;;;30.50;;
52186;SDS011;38161;53.020;6.598;2023-04-16T03:47:20;58.60;;;29.70;;
52186;SDS011;38161;53.020;6.598;2023-04-16T03:49:46;70.32;;;34.08;;
52186;SDS011;38161;53.020;6.598;2023-04-16T03:52:12;62.33;;;30.40;;
52186;SDS011;38161;53.020;6.598;2023-04-16T03:54:38;59.93;;;31.10;;
52186;SDS011;38161;53.020;6.598;2023-04-16T03:57:04;58.50;;;30.30;;
52186;SDS011;38161;53.020;6.598;2023-04-16T03:59:30;67.93;;;33.03;;
52186;SDS011;38161;53.020;6.598;2023-04-16T04:01:55;71.27;;;34.27;;
52186;SDS011;38161;53.020;6.598;2023-04-16T04:04:21;74.77;;;33.93;;
52186;SDS011;38161;53.020;6.598;2023-04-16T04:06:47;53.23;;;30.30;;
52186;SDS011;38161;53.020;6.598;2023-04-16T04:09:13;62.47;;;32.42;;
52186;SDS011;38161;53.020;6.598;2023-04-16T04:11:40;68.50;;;32.35;;
52186;SDS011;38161;53.020;6.598;2023-04-16T04:14:07;61.95;;;31.80;;
52186;SDS011;38161;53.020;6.598;2023-04-16T04:16:33;76.43;;;34.80;;
52186;SDS011;38161;53.020;6.598;2023-04-16T04:18:59;56.60;;;29.38;;
52186;SDS011;38161;53.020;6.598;2023-04-16T04:21:28;61.05;;;30.95;;
52186;SDS011;38161;53.020;6.598;2023-04-16T04:23:55;58.67;;;30.92;;
52186;SDS011;38161;53.020;6.598;2023-04-16T04:26:21;72.10;;;30.00;;
52186;SDS011;38161;53.020;6.598;2023-04-16T04:28:47;65.13;;;31.40;;
52186;SDS011;38161;53.020;6.598;2023-04-16T04:31:12;51.50;;;28.87;;
52186;SDS011;38161;53.020;6.598;2023-04-16T04:33:38;52.60;;;28.40;;
52186;SDS011;38161;53.020;6.598;2023-04-16T04:36:04;60.35;;;29.38;;
52186;SDS011;38161;53.020;6.598;2023-04-16T04:38:30;57.97;;;29.88;;
52186;SDS011;38161;53.020;6.598;2023-04-16T04:40:56;57.40;;;29.33;;
52186;SDS011;38161;53.020;6.598;2023-04-16T04:45:48;58.13;;;28.27;;
52186;SDS011;38161;53.020;6.598;2023-04-16T04:48:15;70.15;;;28.65;;
52186;SDS011;38161;53.020;6.598;2023-04-16T04:50:41;55.10;;;28.67;;
52186;SDS011;38161;53.020;6.598;2023-04-16T04:53:08;60.75;;;29.45;;
52186;SDS011;38161;53.020;6.598;2023-04-16T04:55:35;61.03;;;30.35;;
52186;SDS011;38161;53.020;6.598;2023-04-16T04:58:02;49.83;;;27.38;;
52186;SDS011;38161;53.020;6.598;2023-04-16T05:00:28;53.30;;;29.48;;
52186;SDS011;38161;53.020;6.598;2023-04-16T05:05:21;59.08;;;27.92;;
52186;SDS011;38161;53.020;6.598;2023-04-16T05:07:47;53.17;;;27.58;;
52186;SDS011;38161;53.020;6.598;2023-04-16T05:10:12;67.23;;;30.07;;
52186;SDS011;38161;53.020;6.598;2023-04-16T05:12:38;57.58;;;28.95;;
52186;SDS011;38161;53.020;6.598;2023-04-16T05:15:04;58.85;;;29.27;;
52186;SDS011;38161;53.020;6.598;2023-04-16T05:17:30;65.25;;;30.33;;
52186;SDS011;38161;53.020;6.598;2023-04-16T05:19:56;52.87;;;27.80;;
52186;SDS011;38161;53.020;6.598;2023-04-16T05:22:22;52.53;;;26.77;;
52186;SDS011;38161;53.020;6.598;2023-04-16T05:24:48;61.33;;;28.77;;
52186;SDS011;38161;53.020;6.598;2023-04-16T05:27:14;63.75;;;29.42;;
52186;SDS011;38161;53.020;6.598;2023-04-16T05:29:42;65.03;;;28.88;;
52186;SDS011;38161;53.020;6.598;2023-04-16T05:32:08;53.05;;;28.75;;
52186;SDS011;38161;53.020;6.598;2023-04-16T05:34:34;53.75;;;27.75;;
52186;SDS011;38161;53.020;6.598;2023-04-16T05:37:00;60.30;;;29.27;;
52186;SDS011;38161;53.020;6.598;2023-04-16T05:39:26;60.95;;;29.40;;
52186;SDS011;38161;53.020;6.598;2023-04-16T05:41:51;57.43;;;29.90;;
52186;SDS011;38161;53.020;6.598;2023-04-16T05:44:17;66.15;;;31.08;;
52186;SDS011;38161;53.020;6.598;2023-04-16T05:46:46;65.68;;;29.83;;
52186;SDS011;38161;53.020;6.598;2023-04-16T05:49:12;59.70;;;29.17;;
52186;SDS011;38161;53.020;6.598;2023-04-16T05:51:38;62.70;;;31.13;;
52186;SDS011;38161;53.020;6.598;2023-04-16T05:54:04;66.75;;;29.98;;
52186;SDS011;38161;53.020;6.598;2023-04-16T05:56:29;58.63;;;27.90;;
52186;SDS011;38161;53.020;6.598;2023-04-16T05:58:55;61.47;;;29.27;;
52186;SDS011;38161;53.020;6.598;2023-04-16T06:01:21;58.60;;;29.08;;
52186;SDS011;38161;53.020;6.598;2023-04-16T06:03:47;56.17;;;27.85;;
52186;SDS011;38161;53.020;6.598;2023-04-16T06:06:13;57.78;;;29.67;;
52186;SDS011;38161;53.020;6.598;2023-04-16T06:08:43;55.70;;;28.20;;
52186;SDS011;38161;53.020;6.598;2023-04-16T06:11:09;50.67;;;25.02;;
52186;SDS011;38161;53.020;6.598;2023-04-16T06:13:35;58.28;;;28.88;;
52186;SDS011;38161;53.020;6.598;2023-04-16T06:16:01;51.08;;;26.45;;
52186;SDS011;38161;53.020;6.598;2023-04-16T06:18:27;48.90;;;27.25;;
52186;SDS011;38161;53.020;6.598;2023-04-16T06:20:53;52.10;;;25.90;;
52186;SDS011;38161;53.020;6.598;2023-04-16T06:23:19;45.33;;;26.35;;
52186;SDS011;38161;53.020;6.598;2023-04-16T06:25:44;48.70;;;26.27;;
52186;SDS011;38161;53.020;6.598;2023-04-16T06:28:10;43.65;;;24.95;;
52186;SDS011;38161;53.020;6.598;2023-04-16T06:30:36;43.15;;;24.65;;
52186;SDS011;38161;53.020;6.598;2023-04-16T06:35:29;48.03;;;25.27;;
52186;SDS011;38161;53.020;6.598;2023-04-16T06:37:55;43.73;;;26.10;;
52186;SDS011;38161;53.020;6.598;2023-04-16T06:40:21;43.70;;;25.30;;
52186;SDS011;38161;53.020;6.598;2023-04-16T06:42:46;49.17;;;26.60;;
52186;SDS011;38161;53.020;6.598;2023-04-16T06:45:12;44.05;;;25.38;;
52186;SDS011;38161;53.020;6.598;2023-04-16T06:47:38;43.30;;;25.03;;
52186;SDS011;38161;53.020;6.598;2023-04-16T06:50:04;49.38;;;24.98;;
52186;SDS011;38161;53.020;6.598;2023-04-16T06:54:57;51.13;;;26.23;;
52186;SDS011;38161;53.020;6.598;2023-04-16T06:57:23;55.65;;;27.38;;
52186;SDS011;38161;53.020;6.598;2023-04-16T06:59:49;47.80;;;25.75;;
52186;SDS011;38161;53.020;6.598;2023-04-16T07:02:14;50.83;;;25.83;;
52186;SDS011;38161;53.020;6.598;2023-04-16T07:04:40;52.33;;;26.65;;
52186;SDS011;38161;53.020;6.598;2023-04-16T07:07:07;50.55;;;26.48;;
52186;SDS011;38161;53.020;6.598;2023-04-16T07:09:32;50.97;;;26.00;;
52186;SDS011;38161;53.020;6.598;2023-04-16T07:12:01;46.57;;;24.00;;
52186;SDS011;38161;53.020;6.598;2023-04-16T07:14:27;55.67;;;26.23;;
52186;SDS011;38161;53.020;6.598;2023-04-16T07:16:53;51.07;;;25.47;;
52186;SDS011;38161;53.020;6.598;2023-04-16T07:19:21;55.25;;;26.55;;
52186;SDS011;38161;53.020;6.598;2023-04-16T07:21:50;48.88;;;25.42;;
52186;SDS011;38161;53.020;6.598;2023-04-16T07:24:16;47.70;;;24.13;;
52186;SDS011;38161;53.020;6.598;2023-04-16T07:26:42;50.08;;;25.05;;
52186;SDS011;38161;53.020;6.598;2023-04-16T07:29:07;48.63;;;25.03;;
52186;SDS011;38161;53.020;6.598;2023-04-16T07:31:33;61.93;;;25.77;;
52186;SDS011;38161;53.020;6.598;2023-04-16T07:33:59;48.60;;;24.55;;
52186;SDS011;38161;53.020;6.598;2023-04-16T07:36:25;46.63;;;24.02;;
52186;SDS011;38161;53.020;6.598;2023-04-16T07:38:52;50.83;;;23.27;;
52186;SDS011;38161;53.020;6.598;2023-04-16T07:41:18;59.60;;;24.35;;
52186;SDS011;38161;53.020;6.598;2023-04-16T07:43:44;52.67;;;24.15;;
52186;SDS011;38161;53.020;6.598;2023-04-16T07:46:10;52.88;;;23.50;;
52186;SDS011;38161;53.020;6.598;2023-04-16T07:48:36;48.33;;;22.93;;
52186;SDS011;38161;53.020;6.598;2023-04-16T07:51:02;53.83;;;23.03;;
52186;SDS011;38161;53.020;6.598;2023-04-16T07:53:28;56.25;;;23.80;;
52186;SDS011;38161;53.020;6.598;2023-04-16T07:55:54;53.78;;;23.63;;
52186;SDS011;38161;53.020;6.598;2023-04-16T07:58:20;41.33;;;21.35;;
52186;SDS011;38161;53.020;6.598;2023-04-16T08:00:46;50.85;;;22.63;;
52186;SDS011;38161;53.020;6.598;2023-04-16T08:03:11;54.15;;;24.40;;
52186;SDS011;38161;53.020;6.598;2023-04-16T08:05:37;45.33;;;22.90;;
52186;SDS011;38161;53.020;6.598;2023-04-16T08:08:03;53.25;;;23.98;;
52186;SDS011;38161;53.020;6.598;2023-04-16T08:10:29;55.75;;;25.08;;
52186;SDS011;38161;53.020;6.598;2023-04-16T08:12:55;56.97;;;23.27;;
52186;SDS011;38161;53.020;6.598;2023-04-16T08:15:21;51.60;;;22.85;;
52186;SDS011;38161;53.020;6.598;2023-04-16T08:17:47;48.33;;;24.08;;
52186;SDS011;38161;53.020;6.598;2023-04-16T08:20:13;42.63;;;22.75;;
52186;SDS011;38161;53.020;6.598;2023-04-16T08:22:39;49.10;;;23.58;;
52186;SDS011;38161;53.020;6.598;2023-04-16T08:25:05;48.40;;;23.55;;
52186;SDS011;38161;53.020;6.598;2023-04-16T08:27:31;38.25;;;20.65;;
52186;SDS011;38161;53.020;6.598;2023-04-16T08:29:57;46.78;;;23.42;;
52186;SDS011;38161;53.020;6.598;2023-04-16T08:32:22;40.75;;;22.02;;
52186;SDS011;38161;53.020;6.598;2023-04-16T08:34:48;42.08;;;23.23;;
52186;SDS011;38161;53.020;6.598;2023-04-16T08:37:14;42.78;;;22.38;;
52186;SDS011;38161;53.020;6.598;2023-04-16T08:39:40;42.33;;;21.88;;
52186;SDS011;38161;53.020;6.598;2023-04-16T08:45:06;51.50;;;21.43;;
52186;SDS011;38161;53.020;6.598;2023-04-16T08:47:33;40.42;;;20.83;;
52186;SDS011;38161;53.020;6.598;2023-04-16T08:50:03;45.47;;;22.63;;
52186;SDS011;38161;53.020;6.598;2023-04-16T08:52:30;41.05;;;21.95;;
52186;SDS011;38161;53.020;6.598;2023-04-16T08:55:03;46.17;;;22.30;;
52186;SDS011;38161;53.020;6.598;2023-04-16T08:57:37;40.30;;;20.73;;
52186;SDS011;38161;53.020;6.598;2023-04-16T09:00:06;38.70;;;20.70;;
52186;SDS011;38161;53.020;6.598;2023-04-16T09:02:33;45.47;;;21.38;;
52186;SDS011;38161;53.020;6.598;2023-04-16T09:05:00;38.22;;;20.83;;
52186;SDS011;38161;53.020;6.598;2023-04-16T09:07:30;38.63;;;21.05;;
52186;SDS011;38161;53.020;6.598;2023-04-16T09:09:58;36.70;;;20.30;;
52186;SDS011;38161;53.020;6.598;2023-04-16T09:12:25;37.15;;;20.70;;
52186;SDS011;38161;53.020;6.598;2023-04-16T09:14:51;38.15;;;21.20;;
52186;SDS011;38161;53.020;6.598;2023-04-16T09:17:17;37.60;;;20.27;;
52186;SDS011;38161;53.020;6.598;2023-04-16T09:19:44;37.05;;;20.60;;
52186;SDS011;38161;53.020;6.598;2023-04-16T09:22:10;40.03;;;20.27;;
52186;SDS011;38161;53.020;6.598;2023-04-16T09:24:36;36.72;;;19.02;;
52186;SDS011;38161;53.020;6.598;2023-04-16T09:27:03;40.20;;;20.08;;
52186;SDS011;38161;53.020;6.598;2023-04-16T09:29:38;39.30;;;18.80;;
52186;SDS011;38161;53.020;6.598;2023-04-16T09:32:09;34.70;;;18.83;;
52186;SDS011;38161;53.020;6.598;2023-04-16T09:37:25;29.52;;;18.23;;
52186;SDS011;38161;53.020;6.598;2023-04-16T09:39:54;33.38;;;18.92;;
52186;SDS011;38161;53.020;6.598;2023-04-16T09:42:28;30.85;;;18.13;;
52186;SDS011;38161;53.020;6.598;2023-04-16T09:44:55;28.98;;;17.83;;
52186;SDS011;38161;53.020;6.598;2023-04-16T09:49:49;34.13;;;18.35;;
52186;SDS011;38161;53.020;6.598;2023-04-16T09:52:16;34.65;;;18.40;;
52186;SDS011;38161;53.020;6.598;2023-04-16T09:54:47;32.63;;;17.67;;
52186;SDS011;38161;53.020;6.598;2023-04-16T09:57:18;31.60;;;17.88;;
52186;SDS011;38161;53.020;6.598;2023-04-16T09:59:45;31.90;;;17.55;;
52186;SDS011;38161;53.020;6.598;2023-04-16T10:02:11;32.67;;;18.30;;
52186;SDS011;38161;53.020;6.598;2023-04-16T10:04:47;34.25;;;18.80;;
52186;SDS011;38161;53.020;6.598;2023-04-16T10:07:17;30.27;;;16.90;;
52186;SDS011;38161;53.020;6.598;2023-04-16T10:12:12;25.98;;;16.63;;
52186;SDS011;38161;53.020;6.598;2023-04-16T10:14:39;30.60;;;18.13;;
52186;SDS011;38161;53.020;6.598;2023-04-16T10:17:05;26.35;;;16.58;;
52186;SDS011;38161;53.020;6.598;2023-04-16T10:19:32;26.38;;;16.70;;
52186;SDS011;38161;53.020;6.598;2023-04-16T10:21:59;24.67;;;15.98;;
52186;SDS011;38161;53.020;6.598;2023-04-16T10:24:29;29.65;;;16.65;;
52186;SDS011;38161;53.020;6.598;2023-04-16T10:26:56;30.52;;;17.83;;
52186;SDS011;38161;53.020;6.598;2023-04-16T10:29:24;27.75;;;16.30;;
52186;SDS011;38161;53.020;6.598;2023-04-16T10:31:54;28.60;;;17.05;;
52186;SDS011;38161;53.020;6.598;2023-04-16T10:34:21;25.63;;;15.48;;
52186;SDS011;38161;53.020;6.598;2023-04-16T10:36:49;28.92;;;17.00;;
52186;SDS011;38161;53.020;6.598;2023-04-16T10:39:20;26.17;;;16.67;;
52186;SDS011;38161;53.020;6.598;2023-04-16T10:41:50;24.70;;;16.42;;
52186;SDS011;38161;53.020;6.598;2023-04-16T10:44:34;26.13;;;16.80;;
52186;SDS011;38161;53.020;6.598;2023-04-16T10:47:00;27.00;;;15.57;;
52186;SDS011;38161;53.020;6.598;2023-04-16T10:49:26;26.25;;;15.65;;
52186;SDS011;38161;53.020;6.598;2023-04-16T10:54:23;26.95;;;16.55;;
52186;SDS011;38161;53.020;6.598;2023-04-16T10:56:57;21.60;;;15.32;;
52186;SDS011;38161;53.020;6.598;2023-04-16T10:59:25;23.45;;;15.70;;
52186;SDS011;38161;53.020;6.598;2023-04-16T11:01:57;27.15;;;15.10;;
52186;SDS011;38161;53.020;6.598;2023-04-16T11:04:26;23.30;;;14.45;;
52186;SDS011;38161;53.020;6.598;2023-04-16T11:09:45;21.65;;;15.00;;
52186;SDS011;38161;53.020;6.598;2023-04-16T11:12:34;22.73;;;14.60;;
52186;SDS011;38161;53.020;6.598;2023-04-16T11:17:44;26.25;;;15.18;;
52186;SDS011;38161;53.020;6.598;2023-04-16T11:22:44;23.30;;;13.65;;
52186;SDS011;38161;53.020;6.598;2023-04-16T11:25:10;22.20;;;14.52;;
52186;SDS011;38161;53.020;6.598;2023-04-16T11:30:06;22.98;;;14.23;;
52186;SDS011;38161;53.020;6.598;2023-04-16T11:32:36;25.30;;;14.30;;
52186;SDS011;38161;53.020;6.598;2023-04-16T11:35:12;26.50;;;14.05;;
52186;SDS011;38161;53.020;6.598;2023-04-16T11:37:40;26.35;;;14.57;;
52186;SDS011;38161;53.020;6.598;2023-04-16T11:40:06;29.00;;;15.68;;
52186;SDS011;38161;53.020;6.598;2023-04-16T11:42:37;25.27;;;15.55;;
52186;SDS011;38161;53.020;6.598;2023-04-16T11:45:10;26.75;;;15.38;;
52186;SDS011;38161;53.020;6.598;2023-04-16T11:50:28;27.35;;;15.15;;
52186;SDS011;38161;53.020;6.598;2023-04-16T11:52:55;28.30;;;15.50;;
52186;SDS011;38161;53.020;6.598;2023-04-16T11:55:21;27.25;;;15.00;;
52186;SDS011;38161;53.020;6.598;2023-04-16T11:57:48;28.27;;;15.45;;
52186;SDS011;38161;53.020;6.598;2023-04-16T12:00:15;27.30;;;15.35;;
52186;SDS011;38161;53.020;6.598;2023-04-16T12:05:32;29.35;;;14.93;;
52186;SDS011;38161;53.020;6.598;2023-04-16T12:08:00;25.23;;;14.13;;
52186;SDS011;38161;53.020;6.598;2023-04-16T12:10:28;27.10;;;14.30;;
52186;SDS011;38161;53.020;6.598;2023-04-16T12:13:11;23.65;;;15.68;;
52186;SDS011;38161;53.020;6.598;2023-04-16T12:15:42;30.88;;;15.70;;
52186;SDS011;38161;53.020;6.598;2023-04-16T12:18:28;24.48;;;14.80;;
52186;SDS011;38161;53.020;6.598;2023-04-16T12:20:54;30.48;;;15.98;;
52186;SDS011;38161;53.020;6.598;2023-04-16T12:23:24;24.10;;;16.02;;
52186;SDS011;38161;53.020;6.598;2023-04-16T12:25:54;26.23;;;15.20;;
52186;SDS011;38161;53.020;6.598;2023-04-16T12:28:33;23.95;;;14.52;;
52186;SDS011;38161;53.020;6.598;2023-04-16T12:31:02;28.90;;;15.40;;
52186;SDS011;38161;53.020;6.598;2023-04-16T12:33:28;27.42;;;15.25;;
52186;SDS011;38161;53.020;6.598;2023-04-16T12:35:54;24.65;;;15.25;;
52186;SDS011;38161;53.020;6.598;2023-04-16T12:38:20;24.50;;;15.65;;
52186;SDS011;38161;53.020;6.598;2023-04-16T12:40:46;22.67;;;14.93;;
52186;SDS011;38161;53.020;6.598;2023-04-16T12:43:12;27.00;;;15.50;;
52186;SDS011;38161;53.020;6.598;2023-04-16T12:45:38;28.15;;;15.82;;
52186;SDS011;38161;53.020;6.598;2023-04-16T12:48:05;29.17;;;15.90;;
52186;SDS011;38161;53.020;6.598;2023-04-16T12:50:31;24.83;;;15.00;;
52186;SDS011;38161;53.020;6.598;2023-04-16T12:52:57;27.02;;;16.23;;
52186;SDS011;38161;53.020;6.598;2023-04-16T12:55:23;27.63;;;15.95;;
52186;SDS011;38161;53.020;6.598;2023-04-16T12:57:49;21.40;;;15.35;;
52186;SDS011;38161;53.020;6.598;2023-04-16T13:00:17;24.58;;;15.32;;
52186;SDS011;38161;53.020;6.598;2023-04-16T13:02:44;25.95;;;16.48;;
52186;SDS011;38161;53.020;6.598;2023-04-16T13:05:10;25.95;;;16.60;;
52186;SDS011;38161;53.020;6.598;2023-04-16T13:07:37;23.02;;;15.65;;
52186;SDS011;38161;53.020;6.598;2023-04-16T13:10:04;24.92;;;16.48;;
52186;SDS011;38161;53.020;6.598;2023-04-16T13:12:30;22.48;;;15.38;;
52186;SDS011;38161;53.020;6.598;2023-04-16T13:14:56;27.20;;;16.10;;
52186;SDS011;38161;53.020;6.598;2023-04-16T13:17:22;25.25;;;15.82;;
52186;SDS011;38161;53.020;6.598;2023-04-16T13:19:48;25.40;;;15.68;;
52186;SDS011;38161;53.020;6.598;2023-04-16T13:22:14;22.58;;;15.30;;
52186;SDS011;38161;53.020;6.598;2023-04-16T13:24:40;26.52;;;15.45;;
52186;SDS011;38161;53.020;6.598;2023-04-16T13:27:06;25.58;;;16.42;;
52186;SDS011;38161;53.020;6.598;2023-04-16T13:29:32;32.70;;;16.00;;
52186;SDS011;38161;53.020;6.598;2023-04-16T13:32:00;31.60;;;16.30;;
52186;SDS011;38161;53.020;6.598;2023-04-16T13:34:27;23.13;;;15.60;;
52186;SDS011;38161;53.020;6.598;2023-04-16T13:36:53;27.38;;;16.00;;
52186;SDS011;38161;53.020;6.598;2023-04-16T13:39:18;23.38;;;15.88;;
52186;SDS011;38161;53.020;6.598;2023-04-16T13:44:13;22.60;;;15.20;;
52186;SDS011;38161;53.020;6.598;2023-04-16T13:46:42;29.45;;;15.40;;
52186;SDS011;38161;53.020;6.598;2023-04-16T13:49:12;23.52;;;15.43;;
52186;SDS011;38161;53.020;6.598;2023-04-16T13:54:04;25.77;;;15.98;;
52186;SDS011;38161;53.020;6.598;2023-04-16T13:56:29;24.52;;;15.02;;
52186;SDS011;38161;53.020;6.598;2023-04-16T13:58:55;27.23;;;15.68;;
52186;SDS011;38161;53.020;6.598;2023-04-16T14:01:21;22.42;;;15.32;;
52186;SDS011;38161;53.020;6.598;2023-04-16T14:03:47;22.25;;;15.85;;
52186;SDS011;38161;53.020;6.598;2023-04-16T14:06:13;23.00;;;15.35;;
52186;SDS011;38161;53.020;6.598;2023-04-16T14:08:42;26.98;;;16.17;;
52186;SDS011;38161;53.020;6.598;2023-04-16T14:11:08;25.95;;;15.38;;
52186;SDS011;38161;53.020;6.598;2023-04-16T14:13:35;22.77;;;15.25;;
52186;SDS011;38161;53.020;6.598;2023-04-16T14:16:01;25.05;;;15.80;;
52186;SDS011;38161;53.020;6.598;2023-04-16T14:18:27;23.95;;;14.50;;
52186;SDS011;38161;53.020;6.598;2023-04-16T14:20:53;26.52;;;15.95;;
52186;SDS011;38161;53.020;6.598;2023-04-16T14:23:19;28.35;;;15.90;;
52186;SDS011;38161;53.020;6.598;2023-04-16T14:25:45;25.05;;;15.15;;
52186;SDS011;38161;53.020;6.598;2023-04-16T14:28:11;22.45;;;15.35;;
52186;SDS011;38161;53.020;6.598;2023-04-16T14:30:37;26.05;;;14.95;;
52186;SDS011;38161;53.020;6.598;2023-04-16T14:33:04;25.05;;;15.43;;
52186;SDS011;38161;53.020;6.598;2023-04-16T14:35:30;25.92;;;14.95;;
52186;SDS011;38161;53.020;6.598;2023-04-16T14:37:57;20.65;;;14.77;;
52186;SDS011;38161;53.020;6.598;2023-04-16T14:40:23;22.50;;;15.90;;
52186;SDS011;38161;53.020;6.598;2023-04-16T14:42:50;23.05;;;14.20;;
52186;SDS011;38161;53.020;6.598;2023-04-16T14:45:15;25.45;;;15.32;;
52186;SDS011;38161;53.020;6.598;2023-04-16T14:47:41;28.77;;;15.23;;
52186;SDS011;38161;53.020;6.598;2023-04-16T14:50:11;24.55;;;16.30;;
52186;SDS011;38161;53.020;6.598;2023-04-16T14:52:38;24.88;;;15.13;;
52186;SDS011;38161;53.020;6.598;2023-04-16T14:55:05;28.17;;;17.45;;
52186;SDS011;38161;53.020;6.598;2023-04-16T14:57:31;26.45;;;15.80;;
52186;SDS011;38161;53.020;6.598;2023-04-16T14:59:57;24.77;;;15.40;;
52186;SDS011;38161;53.020;6.598;2023-04-16T15:02:23;27.17;;;16.13;;
52186;SDS011;38161;53.020;6.598;2023-04-16T15:07:15;22.23;;;14.30;;
52186;SDS011;38161;53.020;6.598;2023-04-16T15:09:41;22.30;;;15.00;;
52186;SDS011;38161;53.020;6.598;2023-04-16T15:12:07;20.83;;;14.35;;
52186;SDS011;38161;53.020;6.598;2023-04-16T15:14:36;21.80;;;13.68;;
52186;SDS011;38161;53.020;6.598;2023-04-16T15:17:07;27.42;;;14.50;;